Time;durP1;ratioP1;P1;durP2;ratioP2;P2;SDS_P1;SDS_P2;PMS_P1;PMS_P2;Temp;Humidity;BMP_temperature;BMP_pressure;BME280_temperature;BME280_humidity;BME280_pressure;Samples;Min_cycle;Max_cycle;Signal;HPM_P1;HPM_P2
2022/08/30 00:03:05;;;;;;;1.17;0.60;;;25.60;44.10;;;;;;5017300;28;20042;-54
2022/08/30 00:05:32;;;;;;;1.20;0.70;;;25.50;44.10;;;;;;5017311;28;20096;-56
2022/08/30 00:07:58;;;;;;;1.00;0.65;;;25.50;44.20;;;;;;5033086;28;20068;-52
2022/08/30 00:10:27;;;;;;;1.13;0.80;;;25.50;44.20;;;;;;5023629;28;20029;-54
2022/08/30 00:12:53;;;;;;;1.38;0.60;;;25.50;44.20;;;;;;5035248;28;20099;-58
2022/08/30 00:15:20;;;;;;;1.10;0.60;;;25.50;44.20;;;;;;5036007;28;20030;-51
2022/08/30 00:17:46;;;;;;;1.25;0.73;;;25.50;44.20;;;;;;5037090;28;20043;-56
2022/08/30 00:20:16;;;;;;;1.23;0.68;;;25.50;44.30;;;;;;5025998;28;20044;-56
2022/08/30 00:22:43;;;;;;;1.95;0.70;;;25.50;44.30;;;;;;5016716;28;20053;-56
2022/08/30 00:25:11;;;;;;;0.93;0.50;;;25.40;44.20;;;;;;5016592;28;20033;-57
2022/08/30 00:27:37;;;;;;;0.80;0.50;;;25.50;44.30;;;;;;5016525;28;20457;-55
2022/08/30 00:30:05;;;;;;;1.10;0.60;;;25.40;44.30;;;;;;5016625;28;20323;-56
2022/08/30 00:32:31;;;;;;;0.88;0.55;;;25.40;44.30;;;;;;5018649;28;20494;-56
2022/08/30 00:34:56;;;;;;;0.95;0.77;;;25.40;44.30;;;;;;5016792;28;20034;-56
2022/08/30 00:37:23;;;;;;;1.48;0.70;;;25.40;44.40;;;;;;5016401;28;20034;-57
2022/08/30 00:39:49;;;;;;;1.20;0.70;;;25.40;44.40;;;;;;5015811;28;20096;-55
2022/08/30 00:42:16;;;;;;;1.52;0.80;;;25.40;44.50;;;;;;5016382;28;20045;-52
2022/08/30 00:44:43;;;;;;;1.23;0.65;;;25.40;44.50;;;;;;5016776;28;20398;-56
2022/08/30 00:47:09;;;;;;;0.75;0.45;;;25.40;44.60;;;;;;5016324;28;20022;-55
2022/08/30 00:49:38;;;;;;;1.15;0.52;;;25.40;44.60;;;;;;5019867;28;21851;-58
2022/08/30 00:52:06;;;;;;;0.70;0.60;;;25.40;44.70;;;;;;5019118;28;20117;-55
2022/08/30 00:54:34;;;;;;;0.65;0.50;;;25.40;44.70;;;;;;5016339;28;20120;-52
2022/08/30 00:57:01;;;;;;;0.70;0.70;;;25.40;44.70;;;;;;5016620;28;20030;-56
2022/08/30 00:59:28;;;;;;;1.05;0.65;;;25.40;44.70;;;;;;5022712;28;20116;-55
2022/08/30 01:01:54;;;;;;;0.85;0.60;;;25.40;44.70;;;;;;5035247;28;20121;-55
2022/08/30 01:04:23;;;;;;;0.63;0.60;;;25.40;44.80;;;;;;5035465;28;20517;-56
2022/08/30 01:06:50;;;;;;;1.42;0.70;;;25.40;44.80;;;;;;5019905;28;20048;-54
2022/08/30 01:09:15;;;;;;;0.82;0.60;;;25.30;44.80;;;;;;5015495;28;20444;-53
2022/08/30 01:11:43;;;;;;;0.63;0.60;;;25.30;44.80;;;;;;5015871;28;20034;-55
2022/08/30 01:14:11;;;;;;;0.90;0.70;;;25.30;44.80;;;;;;5027545;28;20124;-52
2022/08/30 01:16:39;;;;;;;1.10;0.60;;;25.30;44.90;;;;;;5015648;28;20034;-54
2022/08/30 01:19:09;;;;;;;0.90;0.60;;;25.30;44.90;;;;;;5015707;28;20033;-53
2022/08/30 01:21:51;;;;;;;0.88;0.68;;;25.30;44.90;;;;;;5020551;28;20095;-53
2022/08/30 01:24:18;;;;;;;2.25;0.65;;;25.30;45.00;;;;;;5015875;28;20033;-54
2022/08/30 01:26:44;;;;;;;0.93;0.60;;;25.30;45.00;;;;;;5016069;28;20119;-53
2022/08/30 01:29:16;;;;;;;0.70;0.70;;;25.30;45.00;;;;;;5015552;28;20402;-54
2022/08/30 01:31:42;;;;;;;0.73;0.50;;;25.30;45.10;;;;;;5020452;28;20110;-50
2022/08/30 01:34:08;;;;;;;2.60;0.70;;;25.30;45.10;;;;;;5033774;28;20088;-53
2022/08/30 01:36:38;;;;;;;0.90;0.50;;;25.30;45.20;;;;;;5028849;28;20021;-53
2022/08/30 01:39:05;;;;;;;1.33;0.80;;;25.30;45.20;;;;;;5015471;28;20041;-53
2022/08/30 01:41:33;;;;;;;1.38;0.40;;;25.20;45.10;;;;;;5015551;28;20033;-53
2022/08/30 01:44:03;;;;;;;1.10;0.60;;;25.20;45.20;;;;;;5015501;28;20120;-53
2022/08/30 01:46:35;;;;;;;0.85;0.60;;;25.20;45.20;;;;;;5015993;28;20030;-51
2022/08/30 01:49:04;;;;;;;1.27;0.70;;;25.20;45.20;;;;;;5015233;28;20357;-51
2022/08/30 01:51:30;;;;;;;0.85;0.60;;;25.20;45.20;;;;;;5026086;28;20417;-52
2022/08/30 01:53:56;;;;;;;0.60;0.55;;;25.20;45.20;;;;;;5017220;28;20029;-53
2022/08/30 01:56:24;;;;;;;0.82;0.60;;;25.20;45.30;;;;;;5016524;28;20030;-54
2022/08/30 01:58:50;;;;;;;1.30;0.60;;;25.20;45.30;;;;;;5015326;28;20116;-52
2022/08/30 02:01:20;;;;;;;1.15;0.60;;;25.20;45.40;;;;;;5015152;28;20343;-49
2022/08/30 02:03:47;;;;;;;0.95;0.60;;;25.20;45.40;;;;;;5020990;28;20116;-56
2022/08/30 02:06:17;;;;;;;1.30;0.65;;;25.20;45.40;;;;;;5029820;28;20026;-50
2022/08/30 02:08:44;;;;;;;1.08;0.80;;;25.20;45.40;;;;;;5015321;28;20535;-54
2022/08/30 02:11:11;;;;;;;1.13;0.73;;;25.20;45.40;;;;;;5024347;28;20043;-53
2022/08/30 02:13:38;;;;;;;1.33;0.60;;;25.20;45.50;;;;;;5032241;28;20052;-51
2022/08/30 02:16:09;;;;;;;2.15;0.93;;;25.20;45.50;;;;;;5029857;28;20048;-49
2022/08/30 02:18:38;;;;;;;1.15;0.65;;;25.20;45.50;;;;;;5015321;28;20449;-54
2022/08/30 02:21:04;;;;;;;0.52;0.50;;;25.10;45.50;;;;;;5015566;28;20484;-54
2022/08/30 02:23:30;;;;;;;0.90;0.63;;;25.10;45.50;;;;;;5013984;28;20026;-51
2022/08/30 02:25:57;;;;;;;2.05;0.90;;;25.10;45.50;;;;;;5014764;28;20497;-51
2022/08/30 02:28:24;;;;;;;0.68;0.55;;;25.10;45.50;;;;;;5015150;28;20453;-52
2022/08/30 02:30:51;;;;;;;0.70;0.55;;;25.10;45.60;;;;;;5024523;28;20057;-54
2022/08/30 02:33:17;;;;;;;1.02;0.68;;;25.10;45.60;;;;;;5027371;28;20112;-55
2022/08/30 02:35:43;;;;;;;0.85;0.60;;;25.10;45.60;;;;;;5033085;28;20029;-53
2022/08/30 02:38:09;;;;;;;0.98;0.70;;;25.10;45.60;;;;;;5015034;28;20041;-52
2022/08/30 02:40:35;;;;;;;0.93;0.63;;;25.10;45.60;;;;;;5031377;28;20449;-51
2022/08/30 02:43:01;;;;;;;1.23;0.70;;;25.10;45.60;;;;;;5022449;28;20185;-51
2022/08/30 02:45:27;;;;;;;1.27;0.70;;;25.10;45.60;;;;;;5014923;28;20030;-51
2022/08/30 02:47:55;;;;;;;0.70;0.70;;;25.10;45.70;;;;;;5014743;28;20029;-52
2022/08/30 02:50:21;;;;;;;1.23;0.70;;;25.10;45.70;;;;;;5015255;28;20176;-53
2022/08/30 02:52:47;;;;;;;0.77;0.60;;;25.10;45.70;;;;;;5014283;28;20041;-52
2022/08/30 02:55:14;;;;;;;0.52;0.50;;;25.10;45.80;;;;;;5022620;28;20330;-51
2022/08/30 02:57:40;;;;;;;0.85;0.65;;;25.10;45.80;;;;;;5015773;28;20109;-50
2022/08/30 03:00:07;;;;;;;0.75;0.60;;;25.10;45.80;;;;;;5013807;28;20619;-50
2022/08/30 03:02:33;;;;;;;1.52;0.70;;;25.00;45.80;;;;;;5018362;28;20484;-50
2022/08/30 03:04:59;;;;;;;0.80;0.57;;;25.00;45.80;;;;;;5034624;28;20029;-51
2022/08/30 03:07:25;;;;;;;1.10;0.70;;;25.10;45.80;;;;;;5018011;28;20417;-53
2022/08/30 03:09:51;;;;;;;1.02;0.70;;;25.00;45.80;;;;;;5020291;28;20353;-55
2022/08/30 03:12:18;;;;;;;0.90;0.60;;;25.00;45.80;;;;;;5033437;28;20036;-51
2022/08/30 03:14:44;;;;;;;1.55;0.80;;;25.00;45.80;;;;;;5034855;28;20029;-52
2022/08/30 03:17:10;;;;;;;0.85;0.63;;;25.00;45.80;;;;;;5017847;28;20034;-50
2022/08/30 03:19:36;;;;;;;0.70;0.70;;;25.00;45.80;;;;;;5014569;28;20040;-49
2022/08/30 03:22:06;;;;;;;0.95;0.70;;;25.00;45.90;;;;;;5014272;28;20034;-54
2022/08/30 03:24:32;;;;;;;0.88;0.70;;;25.00;45.80;;;;;;5018395;28;20044;-51
2022/08/30 03:26:58;;;;;;;0.73;0.50;;;25.00;45.90;;;;;;5017890;28;20044;-52
2022/08/30 03:29:24;;;;;;;1.08;0.60;;;25.00;45.80;;;;;;5018694;28;20034;-52
2022/08/30 03:31:51;;;;;;;1.00;0.77;;;25.00;45.80;;;;;;5021954;28;20041;-52
2022/08/30 03:34:17;;;;;;;1.10;0.60;;;25.00;45.80;;;;;;5037375;28;20021;-53
2022/08/30 03:36:43;;;;;;;1.73;0.85;;;25.00;45.90;;;;;;5036570;28;20037;-49
2022/08/30 03:39:10;;;;;;;1.58;0.60;;;25.00;45.80;;;;;;5035102;28;20037;-52
2022/08/30 03:41:35;;;;;;;0.50;0.50;;;24.90;45.80;;;;;;5031944;28;20049;-49
2022/08/30 03:44:03;;;;;;;1.15;0.63;;;25.00;45.80;;;;;;5017819;28;20033;-50
2022/08/30 03:46:29;;;;;;;0.60;0.60;;;24.90;45.80;;;;;;5025404;28;20033;-52
2022/08/30 03:48:54;;;;;;;0.60;0.57;;;25.00;45.90;;;;;;5018096;28;20037;-53
2022/08/30 03:51:24;;;;;;;0.93;0.68;;;24.90;45.80;;;;;;5016103;28;20339;-49
2022/08/30 03:53:50;;;;;;;1.10;0.60;;;24.90;45.90;;;;;;5017375;28;20113;-54
2022/08/30 03:56:17;;;;;;;0.95;0.60;;;24.90;45.90;;;;;;5016888;28;20398;-50
2022/08/30 03:58:44;;;;;;;0.60;0.52;;;24.90;45.90;;;;;;5018060;28;20040;-53
2022/08/30 04:01:10;;;;;;;1.05;0.60;;;24.90;45.90;;;;;;5020073;28;20026;-54
2022/08/30 04:03:36;;;;;;;1.20;0.60;;;24.90;45.90;;;;;;5017277;28;20108;-56
2022/08/30 04:06:02;;;;;;;0.80;0.63;;;24.90;45.90;;;;;;5017201;28;20113;-55
2022/08/30 04:08:28;;;;;;;0.98;0.60;;;24.90;45.90;;;;;;5016863;28;20054;-55
2022/08/30 04:10:54;;;;;;;2.47;0.70;;;24.90;46.00;;;;;;5024816;28;20033;-53
2022/08/30 04:13:21;;;;;;;4.53;0.80;;;24.80;45.90;;;;;;5018752;28;20578;-53
2022/08/30 04:15:47;;;;;;;1.17;0.73;;;24.80;45.90;;;;;;5016977;28;20121;-50
2022/08/30 04:18:14;;;;;;;1.00;0.60;;;24.90;46.00;;;;;;5016184;28;20033;-52
2022/08/30 04:20:40;;;;;;;0.65;0.50;;;24.80;45.90;;;;;;5027506;28;20072;-54
2022/08/30 04:23:06;;;;;;;0.68;0.57;;;24.80;45.90;;;;;;5021867;28;20488;-53
2022/08/30 04:25:33;;;;;;;1.10;0.60;;;24.80;45.90;;;;;;5016994;28;20184;-54
2022/08/30 04:28:00;;;;;;;1.20;0.50;;;24.80;45.90;;;;;;5017053;28;20148;-55
2022/08/30 04:30:26;;;;;;;0.93;0.60;;;24.80;45.90;;;;;;5017086;28;20041;-51
2022/08/30 04:32:51;;;;;;;1.10;0.60;;;24.80;45.90;;;;;;5028034;28;20041;-56
2022/08/30 04:35:17;;;;;;;0.60;0.50;;;24.80;45.90;;;;;;5031008;28;20021;-55
2022/08/30 04:37:43;;;;;;;0.63;0.45;;;24.80;45.90;;;;;;5016771;28;20041;-54
2022/08/30 04:40:10;;;;;;;1.15;0.70;;;24.80;45.90;;;;;;5016290;28;20038;-52
2022/08/30 04:42:36;;;;;;;0.85;0.50;;;24.80;45.90;;;;;;5027909;28;20350;-54
2022/08/30 04:45:06;;;;;;;1.23;0.98;;;24.80;45.80;;;;;;5034581;28;20036;-55
2022/08/30 04:47:32;;;;;;;1.50;0.60;;;24.80;45.80;;;;;;5017440;28;20445;-54
2022/08/30 04:49:58;;;;;;;1.00;0.60;;;24.80;45.80;;;;;;5016910;28;20037;-50
2022/08/30 04:52:24;;;;;;;0.40;0.40;;;24.80;45.80;;;;;;5023299;28;20095;-56
2022/08/30 04:54:57;;;;;;;1.17;0.50;;;24.80;45.70;;;;;;5035722;28;20053;-57
2022/08/30 04:57:25;;;;;;;1.48;0.70;;;24.80;45.70;;;;;;5016976;28;20040;-57
2022/08/30 04:59:51;;;;;;;0.77;0.45;;;24.80;45.70;;;;;;5022548;28;20030;-54
2022/08/30 05:02:17;;;;;;;0.40;0.40;;;24.80;45.70;;;;;;5028688;28;20038;-56
2022/08/30 05:05:38;;;;;;;0.73;0.40;;;24.70;45.60;;;;;;5020292;28;20568;-56
2022/08/30 05:07:30;;;;;;;0.60;0.40;;;24.80;45.60;;;;;;5016007;28;20073;-54
2022/08/30 05:09:56;;;;;;;1.05;0.50;;;24.70;45.60;;;;;;5020431;28;20033;-51
2022/08/30 05:12:22;;;;;;;0.50;0.40;;;24.80;45.60;;;;;;5029137;28;20049;-55
2022/08/30 05:14:49;;;;;;;0.47;0.45;;;24.80;45.60;;;;;;5024243;28;20045;-55
2022/08/30 05:17:15;;;;;;;0.85;0.50;;;24.80;45.50;;;;;;5015833;28;20178;-55
2022/08/30 05:19:44;;;;;;;1.05;0.40;;;24.70;45.40;;;;;;5019990;28;20468;-56
2022/08/30 05:22:10;;;;;;;1.77;0.50;;;24.70;45.40;;;;;;5030838;28;20487;-55
2022/08/30 05:24:36;;;;;;;0.50;0.45;;;24.70;45.40;;;;;;5025676;28;20030;-53
2022/08/30 05:27:02;;;;;;;0.70;0.60;;;24.70;45.40;;;;;;5016061;28;20307;-56
2022/08/30 05:29:30;;;;;;;0.90;0.50;;;24.70;45.30;;;;;;5014851;28;20041;-49
2022/08/30 05:31:56;;;;;;;0.75;0.30;;;24.70;45.30;;;;;;5016188;28;20514;-54
2022/08/30 05:34:22;;;;;;;0.40;0.40;;;24.80;45.30;;;;;;5018093;28;20030;-53
2022/08/30 05:36:47;;;;;;;0.75;0.50;;;24.70;45.30;;;;;;5014369;28;20092;-54
2022/08/30 05:39:13;;;;;;;0.40;0.40;;;24.70;45.30;;;;;;5016108;28;20092;-52
2022/08/30 05:41:39;;;;;;;0.63;0.50;;;24.80;45.30;;;;;;5028600;28;20354;-56
2022/08/30 05:44:07;;;;;;;0.60;0.40;;;24.70;45.30;;;;;;5025749;28;20038;-53
2022/08/30 05:46:34;;;;;;;0.90;0.52;;;24.70;45.30;;;;;;5035090;28;20150;-57
2022/08/30 05:49:02;;;;;;;2.05;0.50;;;24.80;45.30;;;;;;5030871;28;20040;-53
2022/08/30 05:51:30;;;;;;;0.30;0.30;;;24.80;45.30;;;;;;5015393;28;20048;-54
2022/08/30 05:53:58;;;;;;;1.20;0.50;;;24.70;45.20;;;;;;5015316;28;20392;-55
2022/08/30 05:56:27;;;;;;;0.60;0.30;;;24.80;45.30;;;;;;5015641;28;20084;-54
2022/08/30 05:58:54;;;;;;;1.10;0.57;;;24.80;45.30;;;;;;5015537;28;20038;-56
2022/08/30 06:01:21;;;;;;;0.77;0.40;;;24.70;45.20;;;;;;5017079;28;20037;-55
2022/08/30 06:03:47;;;;;;;0.40;0.30;;;24.80;45.20;;;;;;5018488;28;20318;-55
2022/08/30 06:06:13;;;;;;;0.68;0.50;;;24.70;45.10;;;;;;5027642;28;20041;-53
2022/08/30 06:08:39;;;;;;;0.98;0.40;;;24.70;45.20;;;;;;5014845;28;20058;-52
2022/08/30 06:11:05;;;;;;;0.98;0.40;;;24.80;45.20;;;;;;5030188;28;20029;-54
2022/08/30 06:13:31;;;;;;;0.38;0.30;;;24.70;45.10;;;;;;5016497;28;20349;-55
2022/08/30 06:15:57;;;;;;;1.13;0.40;;;24.70;45.00;;;;;;5014835;28;20520;-54
2022/08/30 06:18:23;;;;;;;0.75;0.50;;;24.80;45.00;;;;;;5016950;28;20128;-53
2022/08/30 06:20:50;;;;;;;0.95;0.52;;;24.80;45.00;;;;;;5014093;28;20044;-56
2022/08/30 06:23:16;;;;;;;0.55;0.38;;;24.80;45.00;;;;;;5031316;28;20029;-62
2022/08/30 06:25:43;;;;;;;1.17;0.50;;;24.70;44.90;;;;;;5033019;28;20037;-54
2022/08/30 06:28:09;;;;;;;0.50;0.30;;;24.80;45.00;;;;;;5020730;28;20116;-51
2022/08/30 06:30:38;;;;;;;0.45;0.45;;;24.80;44.90;;;;;;5014722;28;20061;-53
2022/08/30 06:33:03;;;;;;;0.70;0.40;;;24.80;44.90;;;;;;5026986;28;20040;-52
2022/08/30 06:35:30;;;;;;;0.60;0.45;;;24.80;44.90;;;;;;5035004;28;20030;-56
2022/08/30 06:37:56;;;;;;;0.70;0.50;;;24.80;44.90;;;;;;5034902;28;20034;-62
2022/08/30 06:40:25;;;;;;;1.27;0.50;;;24.80;44.90;;;;;;5025237;28;20026;-49
2022/08/30 06:42:51;;;;;;;0.68;0.45;;;24.80;44.90;;;;;;5023694;28;20022;-55
2022/08/30 06:45:17;;;;;;;0.75;0.52;;;24.80;44.90;;;;;;5020511;28;20041;-53
2022/08/30 06:47:44;;;;;;;0.55;0.40;;;24.80;44.80;;;;;;5016072;28;20426;-56
2022/08/30 06:50:11;;;;;;;0.60;0.40;;;24.80;44.90;;;;;;5030351;28;20041;-54
2022/08/30 06:52:38;;;;;;;0.50;0.40;;;24.80;44.90;;;;;;5032699;28;20025;-51
2022/08/30 06:55:05;;;;;;;0.55;0.40;;;24.80;44.90;;;;;;5021028;28;20447;-56
2022/08/30 06:57:30;;;;;;;0.75;0.40;;;24.80;44.90;;;;;;5035026;28;20357;-51
2022/08/30 06:59:57;;;;;;;0.57;0.38;;;24.80;44.80;;;;;;5029766;28;20025;-55
2022/08/30 07:02:24;;;;;;;0.50;0.30;;;24.80;44.80;;;;;;5019891;28;20333;-57
2022/08/30 07:04:50;;;;;;;0.55;0.30;;;24.80;44.70;;;;;;5018527;28;20029;-53
2022/08/30 07:07:16;;;;;;;0.20;0.20;;;24.80;44.70;;;;;;5017417;28;20365;-54
2022/08/30 07:09:44;;;;;;;0.55;0.40;;;24.80;44.70;;;;;;5023892;28;20022;-57
2022/08/30 07:12:12;;;;;;;1.02;0.50;;;24.80;44.60;;;;;;5019713;28;20129;-55
2022/08/30 07:14:38;;;;;;;0.60;0.32;;;24.80;44.60;;;;;;5030210;28;20373;-53
2022/08/30 07:19:49;;;;;;;0.65;0.40;;;24.90;44.60;;;;;;5018218;28;20120;-56
2022/08/30 07:22:16;;;;;;;0.95;0.40;;;24.80;44.60;;;;;;5038211;28;20481;-54
2022/08/30 07:24:42;;;;;;;0.82;0.47;;;24.90;44.60;;;;;;5053141;28;20076;-57
2022/08/30 07:27:08;;;;;;;0.30;0.30;;;24.90;44.60;;;;;;5024423;28;20034;-56
2022/08/30 07:29:34;;;;;;;1.08;0.50;;;24.90;44.50;;;;;;5018011;28;20034;-53
2022/08/30 07:32:00;;;;;;;0.50;0.30;;;24.90;44.50;;;;;;5020474;28;20061;-56
2022/08/30 07:34:26;;;;;;;1.08;0.47;;;24.90;44.50;;;;;;5019634;28;20033;-56
2022/08/30 07:36:52;;;;;;;0.73;0.45;;;24.90;44.40;;;;;;5017497;28;20408;-53
2022/08/30 07:39:18;;;;;;;0.52;0.32;;;24.90;44.40;;;;;;5017305;28;20114;-56
2022/08/30 07:41:44;;;;;;;0.80;0.50;;;24.90;44.30;;;;;;5030379;28;20049;-55
2022/08/30 07:44:10;;;;;;;0.75;0.40;;;24.90;44.30;;;;;;5031266;28;20041;-54
2022/08/30 07:46:37;;;;;;;1.00;0.40;;;24.90;44.20;;;;;;5021505;28;20121;-53
2022/08/30 07:49:11;;;;;;;0.52;0.22;;;24.90;44.20;;;;;;5020723;28;20039;-53
2022/08/30 07:51:38;;;;;;;0.45;0.38;;;24.90;44.20;;;;;;5026677;28;20034;-57
2022/08/30 07:54:07;;;;;;;2.97;0.50;;;24.90;44.20;;;;;;5017278;28;20026;-54
2022/08/30 07:56:34;;;;;;;0.98;0.38;;;24.90;44.10;;;;;;5028907;28;20103;-56
2022/08/30 07:58:59;;;;;;;0.88;0.40;;;24.90;44.00;;;;;;5033687;28;20029;-58
2022/08/30 08:01:25;;;;;;;0.80;0.20;;;24.90;44.00;;;;;;5037150;28;20029;-54
2022/08/30 08:03:51;;;;;;;1.52;0.70;;;24.90;44.00;;;;;;5036667;28;20353;-50
2022/08/30 08:06:19;;;;;;;0.40;0.40;;;24.90;44.00;;;;;;5027862;28;20026;-55
2022/08/30 08:08:45;;;;;;;0.85;0.50;;;24.90;44.00;;;;;;5019883;28;20046;-53
2022/08/30 08:11:20;;;;;;;0.45;0.40;;;24.90;43.90;;;;;;5025268;28;20079;-54
2022/08/30 08:13:48;;;;;;;0.73;0.45;;;24.90;43.80;;;;;;5016914;28;20049;-56
2022/08/30 08:16:14;;;;;;;0.45;0.40;;;24.90;43.80;;;;;;5030613;28;20037;-51
2022/08/30 08:18:40;;;;;;;0.45;0.40;;;25.00;43.70;;;;;;5019285;28;20372;-52
2022/08/30 08:21:05;;;;;;;1.35;0.43;;;25.00;43.70;;;;;;5019041;28;20105;-54
2022/08/30 08:23:32;;;;;;;0.50;0.40;;;25.00;43.70;;;;;;5031027;28;20354;-56
2022/08/30 08:25:58;;;;;;;0.52;0.47;;;25.00;43.60;;;;;;5032675;28;20110;-53
2022/08/30 08:28:23;;;;;;;0.68;0.40;;;25.00;43.60;;;;;;5019132;28;20025;-55
2022/08/30 08:30:50;;;;;;;0.82;0.50;;;25.00;43.50;;;;;;5018005;28;20361;-57
2022/08/30 08:33:16;;;;;;;1.17;0.50;;;25.00;43.40;;;;;;5024294;28;20038;-54
2022/08/30 08:35:42;;;;;;;0.50;0.30;;;25.00;43.30;;;;;;5018297;28;20040;-55
2022/08/30 08:38:08;;;;;;;0.50;0.40;;;25.00;43.30;;;;;;5019138;28;20025;-55
2022/08/30 08:40:52;;;;;;;0.88;0.45;;;25.00;43.20;;;;;;5016592;28;20122;-54
2022/08/30 08:43:20;;;;;;;;;;;25.00;43.10;;;;;;5016756;28;20026;-56
2022/08/30 08:45:54;;;;;;;0.50;0.30;;;25.00;43.10;;;;;;5016313;28;20241;-53
2022/08/30 08:48:44;;;;;;;0.40;0.40;;;25.00;43.10;;;;;;5016716;28;20042;-52
2022/08/30 08:54:26;;;;;;;0.80;0.50;;;25.00;43.00;;;;;;5015810;28;20083;-54
2022/08/30 08:56:52;;;;;;;0.60;0.47;;;25.00;42.80;;;;;;5006779;28;20033;-52
2022/08/30 08:59:18;;;;;;;1.05;0.55;;;25.00;42.80;;;;;;5016354;28;20462;-49
2022/08/30 09:01:46;;;;;;;0.75;0.40;;;25.00;42.70;;;;;;5019553;28;20155;-53
2022/08/30 09:04:18;;;;;;;0.77;0.50;;;25.00;42.70;;;;;;5024838;28;20068;-51
2022/08/30 09:06:43;;;;;;;1.65;0.50;;;25.00;42.80;;;;;;5036385;28;20060;-52
2022/08/30 09:09:10;;;;;;;0.85;0.50;;;25.00;42.80;;;;;;5021009;28;20077;-55
2022/08/30 09:11:37;;;;;;;1.33;0.68;;;25.00;42.90;;;;;;5021920;28;20029;-56
2022/08/30 09:14:11;;;;;;;2.60;0.63;;;25.00;43.00;;;;;;5032987;28;20033;-57
2022/08/30 09:16:55;;;;;;;0.70;0.50;;;25.00;43.20;;;;;;5027097;28;20124;-57
2022/08/30 09:19:32;;;;;;;0.95;0.70;;;25.10;43.00;;;;;;5015681;28;20026;-53
2022/08/30 09:22:21;;;;;;;3.42;0.68;;;25.10;42.90;;;;;;5015475;28;20041;-49
2022/08/30 09:25:13;;;;;;;1.20;0.70;;;25.10;42.90;;;;;;5012169;28;20045;-53
2022/08/30 09:27:44;;;;;;;1.63;0.47;;;25.10;42.90;;;;;;4993094;28;20073;-53
2022/08/30 09:30:28;;;;;;;1.88;0.60;;;25.10;42.90;;;;;;5016531;28;20033;-55
2022/08/30 09:32:58;;;;;;;1.58;0.63;;;25.10;43.00;;;;;;5016663;28;20100;-53
2022/08/30 09:35:35;;;;;;;2.22;0.60;;;25.10;43.00;;;;;;5015482;28;20029;-52
2022/08/30 09:38:16;;;;;;;0.98;0.50;;;25.10;43.10;;;;;;5015591;28;20049;-53
2022/08/30 09:40:43;;;;;;;0.85;0.60;;;25.10;43.20;;;;;;5015759;28;20025;-52
2022/08/30 09:43:26;;;;;;;1.40;0.77;;;25.10;43.20;;;;;;5015277;28;20041;-52
2022/08/30 09:46:01;;;;;;;1.25;0.50;;;25.20;43.30;;;;;;5020036;28;20037;-53
2022/08/30 09:48:31;;;;;;;1.83;0.70;;;25.20;43.30;;;;;;5033110;28;20044;-55
2022/08/30 09:51:09;;;;;;;1.00;0.57;;;25.20;43.30;;;;;;5035419;28;20340;-55
2022/08/30 09:53:44;;;;;;;0.85;0.50;;;25.20;43.30;;;;;;5020651;28;20504;-51
2022/08/30 09:56:24;;;;;;;1.55;0.47;;;25.20;43.30;;;;;;5015279;28;20061;-53
2022/08/30 09:59:15;;;;;;;0.70;0.50;;;25.20;43.20;;;;;;5017169;28;20025;-48
2022/08/30 10:01:54;;;;;;;2.38;0.60;;;25.20;43.10;;;;;;5017297;28;20044;-53
2022/08/30 10:04:34;;;;;;;2.00;0.50;;;25.20;43.00;;;;;;5026997;28;20071;-54
2022/08/30 10:07:26;;;;;;;0.60;0.40;;;25.20;43.00;;;;;;5035300;28;20326;-54
2022/08/30 10:10:16;;;;;;;0.75;0.57;;;25.20;42.90;;;;;;5018641;28;20046;-52
2022/08/30 10:13:12;;;;;;;0.85;0.52;;;25.30;43.00;;;;;;5021603;28;20037;-49
2022/08/30 10:16:04;;;;;;;4.47;0.60;;;25.30;43.10;;;;;;5021494;28;20040;-51
2022/08/30 10:18:40;;;;;;;2.15;0.55;;;25.30;43.10;;;;;;5017791;28;20034;-59
2022/08/30 10:21:16;;;;;;;3.30;0.93;;;25.30;43.10;;;;;;5018594;28;20466;-57
2022/08/30 10:23:53;;;;;;;4.57;0.50;;;25.30;43.00;;;;;;5018697;28;20408;-59
2022/08/30 10:26:35;;;;;;;3.13;0.65;;;25.40;43.00;;;;;;5020111;28;20049;-60
2022/08/30 10:29:03;;;;;;;3.90;0.60;;;25.40;42.90;;;;;;5022865;28;20026;-61
2022/08/30 10:31:54;;;;;;;1.10;0.43;;;25.50;42.80;;;;;;5022564;28;20041;-61
2022/08/30 10:34:32;;;;;;;1.85;0.63;;;25.60;42.80;;;;;;5031801;28;20029;-60
2022/08/30 10:37:10;;;;;;;1.48;0.40;;;25.70;42.80;;;;;;5022069;28;20064;-59
2022/08/30 10:39:45;;;;;;;2.35;0.47;;;25.80;42.60;;;;;;5028190;28;20029;-55
2022/08/30 10:42:30;;;;;;;3.45;0.50;;;25.90;42.50;;;;;;5024851;28;20108;-58
2022/08/30 10:44:57;;;;;;;1.30;0.60;;;26.00;42.30;;;;;;5027129;28;20029;-54
2022/08/30 10:47:47;;;;;;;2.92;0.50;;;26.20;42.90;;;;;;5028262;28;20344;-59
2022/08/30 10:50:21;;;;;;;1.48;0.57;;;26.30;42.00;;;;;;5028597;28;20445;-56
2022/08/30 10:52:56;;;;;;;1.40;0.47;;;26.40;41.80;;;;;;5023937;28;20048;-58
2022/08/30 10:55:27;;;;;;;1.20;0.50;;;26.50;41.50;;;;;;5027739;28;20029;-59
2022/08/30 10:57:59;;;;;;;1.25;0.93;;;26.60;41.30;;;;;;5027580;28;20034;-59
2022/08/30 11:00:35;;;;;;;3.00;0.50;;;26.70;41.10;;;;;;5025359;28;20095;-60
2022/08/30 11:03:16;;;;;;;1.33;0.55;;;26.70;40.80;;;;;;5025176;28;20435;-60
2022/08/30 11:05:52;;;;;;;0.90;0.40;;;26.80;40.70;;;;;;5026394;28;20709;-57
2022/08/30 11:08:47;;;;;;;3.10;0.50;;;26.90;40.60;;;;;;5023016;28;20056;-58
2022/08/30 11:11:46;;;;;;;0.70;0.40;;;27.00;40.60;;;;;;5026050;28;20508;-61
2022/08/30 11:14:16;;;;;;;0.82;0.40;;;27.10;40.60;;;;;;5030192;28;20515;-59
2022/08/30 11:16:47;;;;;;;0.77;0.50;;;27.10;40.40;;;;;;5025748;28;20025;-58
2022/08/30 11:19:25;;;;;;;0.60;0.40;;;27.20;40.30;;;;;;5026981;28;20365;-59
2022/08/30 11:22:07;;;;;;;2.28;0.40;;;27.30;40.20;;;;;;5024103;28;20037;-59
2022/08/30 11:25:00;;;;;;;1.63;0.45;;;27.30;40.10;;;;;;5021757;28;20033;-58
2022/08/30 11:27:51;;;;;;;4.05;0.47;;;27.40;39.90;;;;;;5023990;28;20445;-58
2022/08/30 11:30:42;;;;;;;2.88;0.52;;;27.40;39.80;;;;;;5027898;28;20586;-60
2022/08/30 11:33:11;;;;;;;1.65;0.60;;;27.50;39.80;;;;;;5024788;28;20036;-58
2022/08/30 11:35:48;;;;;;;5.25;0.60;;;27.50;39.70;;;;;;5025035;28;20459;-57
2022/08/30 11:38:27;;;;;;;2.88;0.65;;;27.60;39.70;;;;;;5021295;28;20033;-58
2022/08/30 11:40:53;;;;;;;1.83;0.45;;;27.60;39.60;;;;;;5023953;28;20037;-57
2022/08/30 11:43:34;;;;;;;3.20;0.60;;;27.60;39.50;;;;;;5021571;28;20432;-58
2022/08/30 11:46:18;;;;;;;2.35;0.57;;;27.70;39.50;;;;;;5024463;28;20448;-58
2022/08/30 11:48:50;;;;;;;1.67;0.60;;;27.70;39.40;;;;;;5023818;28;20038;-60
2022/08/30 11:51:35;;;;;;;0.82;0.50;;;27.80;39.30;;;;;;5021297;28;20048;-58
2022/08/30 11:54:26;;;;;;;3.55;0.60;;;27.80;39.30;;;;;;5024434;28;20337;-60
2022/08/30 11:57:10;;;;;;;3.55;0.52;;;27.80;39.40;;;;;;5022358;28;20369;-60
2022/08/30 12:00:09;;;;;;;0.90;0.60;;;27.80;39.70;;;;;;5024762;28;20026;-57
2022/08/30 12:03:02;;;;;;;1.33;0.52;;;27.80;39.80;;;;;;5024752;28;20052;-56
2022/08/30 12:05:38;;;;;;;1.35;0.57;;;27.80;39.70;;;;;;5025566;28;20045;-58
2022/08/30 12:08:11;;;;;;;2.55;0.60;;;27.80;39.60;;;;;;5022702;28;20566;-55
2022/08/30 12:10:42;;;;;;;3.00;0.70;;;27.80;39.50;;;;;;5026427;28;20048;-60
2022/08/30 12:13:29;;;;;;;0.77;0.65;;;27.80;39.40;;;;;;5029582;28;20057;-59
2022/08/30 12:16:06;;;;;;;0.43;0.40;;;27.80;39.40;;;;;;5027070;28;20345;-56
2022/08/30 12:18:59;;;;;;;1.25;0.50;;;27.80;39.20;;;;;;5023121;28;20038;-57
2022/08/30 12:21:34;;;;;;;2.28;0.40;;;27.90;39.10;;;;;;5022756;28;20053;-58
2022/08/30 12:24:22;;;;;;;1.67;0.60;;;27.90;39.00;;;;;;5023043;28;20029;-58
2022/08/30 12:26:50;;;;;;;2.40;0.55;;;27.90;38.80;;;;;;5028606;28;20052;-60
2022/08/30 12:29:25;;;;;;;1.30;0.80;;;27.90;38.40;;;;;;5024669;28;20033;-57
2022/08/30 12:32:02;;;;;;;2.72;0.50;;;27.90;38.20;;;;;;5024489;28;20128;-54
2022/08/30 12:34:29;;;;;;;1.30;0.47;;;27.90;38.00;;;;;;5028576;28;20030;-56
2022/08/30 12:37:10;;;;;;;0.95;0.60;;;27.90;37.80;;;;;;5025443;28;20029;-54
2022/08/30 12:39:40;;;;;;;1.50;0.47;;;27.90;37.60;;;;;;5020717;28;20053;-59
2022/08/30 12:42:21;;;;;;;2.45;0.68;;;27.80;37.40;;;;;;5026325;28;20069;-56
2022/08/30 12:44:50;;;;;;;0.82;0.60;;;27.80;37.40;;;;;;5022137;28;20462;-62
2022/08/30 12:47:21;;;;;;;1.42;0.50;;;27.80;37.60;;;;;;5021152;28;20025;-66
2022/08/30 12:49:51;;;;;;;0.88;0.40;;;27.80;37.60;;;;;;5024613;28;20029;-61
2022/08/30 12:52:27;;;;;;;0.93;0.50;;;27.80;37.50;;;;;;5021292;28;20048;-61
2022/08/30 12:55:03;;;;;;;2.97;0.60;;;27.90;37.50;;;;;;5026142;28;20045;-62
2022/08/30 12:57:40;;;;;;;2.25;0.50;;;27.90;37.60;;;;;;5025112;28;20033;-62
2022/08/30 13:00:22;;;;;;;2.60;0.50;;;27.90;37.70;;;;;;5022226;28;20041;-63
2022/08/30 13:02:51;;;;;;;4.75;0.70;;;27.90;37.90;;;;;;5024028;28;20552;-62
2022/08/30 13:05:33;;;;;;;1.15;0.57;;;27.90;38.00;;;;;;5025698;28;20034;-59
2022/08/30 13:08:14;;;;;;;1.80;0.55;;;28.00;38.20;;;;;;5021954;28;20060;-57
2022/08/30 13:10:52;;;;;;;1.25;0.50;;;28.00;38.50;;;;;;5023320;28;20022;-57
2022/08/30 13:13:46;;;;;;;0.70;0.35;;;28.00;38.50;;;;;;5025436;28;20172;-56